createdAt,value
2017-08-25T00:00:07.533Z,4.00
2017-08-25T00:02:41.215Z,5.05
2017-08-25T00:05:15.690Z,4.68
2017-08-25T00:07:52.084Z,4.40
2017-08-25T00:10:38.266Z,3.90
2017-08-25T00:13:11.580Z,4.15
2017-08-25T00:15:43.317Z,5.10
2017-08-25T00:18:18.723Z,4.43
2017-08-25T00:20:52.202Z,3.70
2017-08-25T00:23:27.605Z,4.55
2017-08-25T00:26:02.530Z,4.90
2017-08-25T00:28:37.942Z,4.50
2017-08-25T00:31:09.428Z,4.62
2017-08-25T00:33:42.586Z,4.40
2017-08-25T00:38:54.340Z,4.15
2017-08-25T00:41:28.743Z,4.12
2017-08-25T00:44:06.033Z,4.25
2017-08-25T00:46:43.202Z,8.85
2017-08-25T00:49:20.730Z,5.22
2017-08-25T00:51:55.129Z,7.03
2017-08-25T00:57:06.529Z,6.65
2017-08-25T00:59:47.004Z,5.35
2017-08-25T01:02:20.371Z,4.57
2017-08-25T01:04:56.240Z,5.47
2017-08-25T01:07:31.076Z,4.72
2017-08-25T01:10:03.602Z,4.72
2017-08-25T01:12:38.681Z,4.95
2017-08-25T01:15:09.726Z,6.20
2017-08-25T01:17:44.868Z,7.95
2017-08-25T01:20:21.936Z,5.15
2017-08-25T01:22:56.552Z,5.28
2017-08-25T01:25:30.280Z,6.35
2017-08-25T01:28:01.655Z,4.90
2017-08-25T01:30:42.731Z,5.62
2017-08-25T01:33:19.929Z,7.10
2017-08-25T01:35:52.394Z,8.07
2017-08-25T01:38:25.778Z,5.85
2017-08-25T01:40:58.855Z,4.97
2017-08-25T01:43:33.169Z,7.20
2017-08-25T01:46:07.812Z,5.50
2017-08-25T01:48:40.463Z,5.28
2017-08-25T01:51:14.598Z,5.72
2017-08-25T01:53:48.567Z,5.35
2017-08-25T01:56:23.130Z,4.87
2017-08-25T01:58:58.959Z,5.10
2017-08-25T02:01:34.310Z,5.82
2017-08-25T02:04:04.247Z,6.68
2017-08-25T02:06:45.927Z,13.73
2017-08-25T02:09:20.061Z,7.05
2017-08-25T02:11:54.886Z,4.85
2017-08-25T02:14:26.106Z,6.35
2017-08-25T02:17:02.660Z,7.50
2017-08-25T02:19:34.950Z,5.60
2017-08-25T02:22:06.417Z,6.15
2017-08-25T02:24:48.602Z,7.80
2017-08-25T02:27:22.810Z,9.23
2017-08-25T02:29:57.496Z,6.75
2017-08-25T02:32:32.526Z,8.18
2017-08-25T02:35:04.591Z,7.37
2017-08-25T02:37:38.359Z,6.47
2017-08-25T02:40:12.981Z,10.18
2017-08-25T02:42:45.490Z,6.50
2017-08-25T02:45:21.004Z,8.20
2017-08-25T02:47:54.444Z,7.70
2017-08-25T02:53:09.882Z,6.12
2017-08-25T02:58:29.406Z,7.20
2017-08-25T03:01:11.805Z,7.00
2017-08-25T03:09:05.070Z,6.97
2017-08-25T03:11:41.287Z,9.05
2017-08-25T03:16:58.164Z,7.78
2017-08-25T03:22:16.221Z,8.65
2017-08-25T03:24:52.688Z,8.77
2017-08-25T03:27:28.929Z,6.93
2017-08-25T03:30:06.296Z,6.62
2017-08-25T03:32:41.607Z,7.35
2017-08-25T03:35:24.278Z,8.10
2017-08-25T03:40:38.993Z,7.55
2017-08-25T03:43:16.655Z,10.60
2017-08-25T03:45:52.023Z,7.80
2017-08-25T03:48:30.269Z,8.32
2017-08-25T03:51:11.140Z,7.22
2017-08-25T03:59:31.293Z,9.27
2017-08-25T04:13:08.008Z,10.10
2017-08-25T04:15:51.135Z,8.90
2017-08-25T04:18:29.714Z,9.20
2017-08-25T04:23:45.217Z,8.32
2017-08-25T04:26:26.116Z,11.60
2017-08-25T04:29:05.330Z,9.07
2017-08-25T04:34:38.969Z,11.20
2017-08-25T04:39:54.238Z,10.38
2017-08-25T04:42:29.783Z,9.52
2017-08-25T04:45:05.615Z,9.20
2017-08-25T04:47:41.264Z,8.85
2017-08-25T04:50:17.156Z,7.57
2017-08-25T04:55:33.345Z,7.65
2017-08-25T04:58:09.522Z,10.85
2017-08-25T05:00:44.866Z,7.68
2017-08-25T05:03:23.018Z,9.55
2017-08-25T05:06:01.245Z,8.80
2017-08-25T05:08:38.550Z,8.35
2017-08-25T05:13:50.368Z,7.60
2017-08-25T05:19:19.402Z,6.95
2017-08-25T05:21:58.551Z,6.72
2017-08-25T05:32:50.002Z,7.07
2017-08-25T05:41:31.155Z,6.90
2017-08-25T05:44:02.527Z,14.55
2017-08-25T05:51:45.928Z,6.12
2017-08-25T05:54:21.063Z,5.45
2017-08-25T05:56:52.735Z,6.80
2017-08-25T05:59:26.793Z,5.45
2017-08-25T06:01:57.953Z,5.85
2017-08-25T06:04:28.613Z,6.50
2017-08-25T06:06:59.697Z,8.23
2017-08-25T06:09:33.152Z,6.45
2017-08-25T06:12:06.392Z,6.05
2017-08-25T06:14:37.471Z,5.87
2017-08-25T06:17:10.666Z,6.18
2017-08-25T06:19:41.175Z,6.45
2017-08-25T06:22:13.496Z,5.90
2017-08-25T06:24:44.792Z,7.35
2017-08-25T06:27:17.576Z,5.78
2017-08-25T06:29:47.285Z,5.82
2017-08-25T06:32:21.251Z,5.93
2017-08-25T06:34:54.532Z,10.05
2017-08-25T06:37:26.343Z,7.97
2017-08-25T06:39:57.728Z,5.80
2017-08-25T06:42:29.353Z,7.45
2017-08-25T06:44:59.536Z,6.30
2017-08-25T06:47:32.848Z,6.50
2017-08-25T06:50:04.692Z,5.45
2017-08-25T06:52:35.323Z,7.53
2017-08-25T06:55:07.073Z,7.80
2017-08-25T06:57:40.585Z,6.90
2017-08-25T07:00:12.000Z,6.10
2017-08-25T07:02:42.093Z,6.70
2017-08-25T07:05:13.667Z,7.05
2017-08-25T07:07:44.061Z,7.25
2017-08-25T07:10:13.497Z,7.37
2017-08-25T07:12:44.093Z,5.93
2017-08-25T07:17:49.423Z,9.85
2017-08-25T07:20:20.323Z,6.30
2017-08-25T07:22:51.964Z,6.93
2017-08-25T07:25:21.466Z,6.07
2017-08-25T07:27:51.677Z,6.15
2017-08-25T07:30:21.953Z,6.50
2017-08-25T07:32:52.518Z,10.88
2017-08-25T07:35:23.306Z,7.50
2017-08-25T07:37:54.554Z,8.82
2017-08-25T07:40:25.182Z,9.70
2017-08-25T07:42:56.836Z,6.35
2017-08-25T07:45:26.554Z,6.57
2017-08-25T07:50:30.977Z,6.70
2017-08-25T07:53:04.065Z,7.10
2017-08-25T07:55:35.479Z,9.23
2017-08-25T07:58:06.004Z,6.80
2017-08-25T08:00:36.629Z,7.37
2017-08-25T08:03:07.421Z,9.43
2017-08-25T08:05:37.183Z,7.37
2017-08-25T08:08:07.433Z,7.27
2017-08-25T08:10:38.290Z,11.07
2017-08-25T08:13:08.818Z,6.93
2017-08-25T08:15:39.304Z,8.33
2017-08-25T08:18:10.613Z,5.93
2017-08-25T08:20:40.823Z,6.23
2017-08-25T08:23:11.882Z,9.40
2017-08-25T08:25:42.562Z,6.20
2017-08-25T08:28:12.883Z,6.97
2017-08-25T08:30:42.639Z,6.43
2017-08-25T08:33:12.679Z,5.00
2017-08-25T08:35:45.124Z,8.10
2017-08-25T08:41:03.787Z,5.37
2017-08-25T08:43:34.356Z,5.27
2017-08-25T08:46:05.926Z,5.53
2017-08-25T08:48:36.801Z,5.53
2017-08-25T08:51:10.548Z,5.80
2017-08-25T08:53:39.242Z,5.80
2017-08-25T08:56:07.394Z,5.00
2017-08-25T08:58:35.547Z,5.03
2017-08-25T09:01:05.526Z,4.90
2017-08-25T09:03:35.019Z,5.80
2017-08-25T09:06:05.772Z,4.80
2017-08-25T09:08:34.984Z,5.83
2017-08-25T09:11:03.782Z,4.80
2017-08-25T09:13:32.726Z,5.57
2017-08-25T09:16:01.707Z,5.53
2017-08-25T09:18:31.704Z,6.93
2017-08-25T09:24:22.241Z,6.87
2017-08-25T09:26:53.353Z,7.33
2017-08-25T09:29:42.180Z,4.63
2017-08-25T09:32:13.593Z,6.47
2017-08-25T09:34:46.491Z,4.60
2017-08-25T09:37:17.128Z,4.93
2017-08-25T09:39:48.163Z,5.43
2017-08-25T09:42:18.908Z,8.43
2017-08-25T09:44:54.209Z,4.70
2017-08-25T09:47:22.708Z,5.07
2017-08-25T09:49:50.852Z,4.83
2017-08-25T09:52:18.989Z,5.57
2017-08-25T09:54:51.860Z,5.00
2017-08-25T09:57:21.902Z,13.67
2017-08-25T09:59:50.253Z,7.63
2017-08-25T10:02:18.404Z,4.27
2017-08-25T10:04:46.527Z,5.00
2017-08-25T10:07:14.697Z,5.50
2017-08-25T10:09:42.889Z,6.17
2017-08-25T10:12:11.015Z,7.23
2017-08-25T10:14:39.280Z,5.60
2017-08-25T10:17:11.107Z,5.00
2017-08-25T10:19:39.694Z,5.30
2017-08-25T10:22:08.609Z,4.93
2017-08-25T10:24:38.005Z,5.57
2017-08-25T10:27:06.159Z,5.97
2017-08-25T10:29:35.069Z,6.13
2017-08-25T10:32:03.360Z,5.77
2017-08-25T10:34:31.497Z,6.30
2017-08-25T10:36:59.850Z,6.80
2017-08-25T10:50:01.015Z,5.90
2017-08-25T10:52:29.141Z,6.67
2017-08-25T10:54:58.224Z,6.07
2017-08-25T10:57:26.337Z,6.87
2017-08-25T10:59:54.474Z,7.63
2017-08-25T11:02:22.650Z,6.33
2017-08-25T11:04:50.789Z,7.87
2017-08-25T11:07:18.924Z,7.07
2017-08-25T11:12:49.855Z,6.60
2017-08-25T11:15:21.894Z,6.87
2017-08-25T11:17:52.450Z,7.77
2017-08-25T11:24:16.237Z,7.20
2017-08-25T11:26:48.272Z,7.13
2017-08-25T11:29:16.605Z,7.70
2017-08-25T11:31:45.552Z,7.17
2017-08-25T11:34:13.706Z,6.40
2017-08-25T11:36:41.896Z,7.03
2017-08-25T11:39:10.175Z,8.30
2017-08-25T11:41:39.508Z,7.63
2017-08-25T11:44:08.260Z,6.83
2017-08-25T11:46:45.182Z,7.00
2017-08-25T11:49:13.789Z,7.33
2017-08-25T11:51:41.925Z,7.37
2017-08-25T11:54:10.108Z,6.20
2017-08-25T11:56:38.247Z,7.00
2017-08-25T11:59:06.389Z,6.60
2017-08-25T12:01:34.679Z,7.73
2017-08-25T12:04:02.813Z,6.80
2017-08-25T12:06:31.723Z,10.80
2017-08-25T12:08:59.908Z,7.20
2017-08-25T12:11:28.049Z,7.83
2017-08-25T12:13:56.209Z,24.83
2017-08-25T12:16:24.388Z,7.60
2017-08-25T12:18:52.520Z,6.97
2017-08-25T12:21:20.724Z,7.17
2017-08-25T12:23:48.865Z,7.40
2017-08-25T12:26:17.023Z,6.07
2017-08-25T12:28:45.209Z,7.90
2017-08-25T12:31:13.372Z,8.90
2017-08-25T12:33:41.509Z,6.20
2017-08-25T12:36:10.430Z,7.37
2017-08-25T12:38:38.723Z,7.50
2017-08-25T12:41:06.893Z,7.20
2017-08-25T12:43:35.026Z,7.70
2017-08-25T12:46:03.199Z,7.40
2017-08-25T12:48:32.572Z,11.60
2017-08-25T12:51:00.729Z,7.30
2017-08-25T15:26:31.164Z,7.97
2017-08-25T15:29:02.139Z,6.43
2017-08-25T15:31:34.160Z,6.90
2017-08-25T15:34:07.601Z,6.73
2017-08-25T15:36:38.834Z,7.30
2017-08-25T15:39:11.826Z,6.60
2017-08-25T15:41:45.044Z,6.70
2017-08-25T15:47:15.309Z,9.07
2017-08-25T15:49:50.980Z,7.30
2017-08-25T15:52:26.325Z,7.03
2017-08-25T15:54:58.989Z,7.27
2017-08-25T16:00:18.341Z,7.07
2017-08-25T16:02:53.733Z,8.33
2017-08-25T16:08:02.328Z,6.20
2017-08-25T16:20:03.625Z,8.30
2017-08-25T16:23:21.328Z,8.50
2017-08-25T16:25:51.238Z,6.70
2017-08-25T16:28:21.309Z,7.53
2017-08-25T16:30:52.886Z,7.63
2017-08-25T16:54:09.763Z,7.70
2017-08-25T16:56:39.945Z,7.63
2017-08-25T16:59:10.534Z,8.07
2017-08-25T17:01:41.690Z,9.23
2017-08-25T17:04:13.552Z,9.07
2017-08-25T17:06:44.074Z,7.90
2017-08-25T17:09:14.603Z,7.57
2017-08-25T17:11:45.438Z,7.40
2017-08-25T17:14:15.755Z,8.23
2017-08-25T17:16:49.082Z,7.80
2017-08-25T17:43:56.185Z,8.00
2017-08-25T17:46:28.302Z,10.23
2017-08-25T17:48:56.933Z,8.10
2017-08-25T17:51:26.690Z,9.63
2017-08-25T17:53:55.335Z,7.83
2017-08-25T17:56:27.945Z,8.20
2017-08-25T17:58:59.858Z,8.70
2017-08-25T18:01:31.310Z,8.80
2017-08-25T18:04:02.141Z,8.57
2017-08-25T18:06:33.563Z,7.83
2017-08-25T18:09:04.114Z,11.70
2017-08-25T18:11:35.691Z,9.37
2017-08-25T18:14:06.797Z,8.30
2017-08-25T18:16:38.044Z,8.97
2017-08-25T18:19:09.453Z,8.20
2017-08-25T18:21:40.071Z,8.77
2017-08-25T18:24:12.643Z,8.40
2017-08-25T18:26:44.215Z,7.90
2017-08-25T18:29:14.982Z,10.20
2017-08-25T18:31:46.011Z,8.60
2017-08-25T18:34:17.849Z,8.40
2017-08-25T18:36:48.889Z,9.80
2017-08-25T18:39:20.230Z,9.33
2017-08-25T18:41:50.353Z,9.20
2017-08-25T18:44:22.159Z,9.40
2017-08-25T18:46:52.389Z,9.17
2017-08-25T18:49:28.099Z,9.57
2017-08-25T18:52:00.621Z,9.60
2017-08-25T18:54:30.109Z,9.87
2017-08-25T18:57:00.914Z,8.77
2017-08-25T18:59:31.820Z,10.80
2017-08-25T19:02:02.550Z,11.70
2017-08-25T19:04:33.218Z,11.17
2017-08-25T19:07:05.847Z,10.70
2017-08-25T19:09:36.916Z,11.30
2017-08-25T19:12:07.799Z,12.47
2017-08-25T19:14:37.811Z,12.37
2017-08-25T19:17:08.241Z,10.40
2017-08-25T19:19:38.886Z,11.07
2017-08-25T19:22:12.628Z,10.37
2017-08-25T19:24:43.757Z,12.90
2017-08-25T19:27:13.697Z,10.80
2017-08-25T19:29:43.630Z,15.23
2017-08-25T19:32:14.207Z,12.53
2017-08-25T19:34:43.842Z,10.20
2017-08-25T19:37:14.036Z,10.97
2017-08-25T19:39:44.933Z,10.30
2017-08-25T19:42:15.071Z,9.57
2017-08-25T19:44:45.944Z,10.53
2017-08-25T19:47:16.943Z,10.70
2017-08-25T19:49:47.658Z,10.67
2017-08-25T19:52:19.357Z,10.47
2017-08-25T19:54:51.873Z,12.00
2017-08-25T19:57:27.788Z,10.87
2017-08-25T20:00:00.147Z,11.83
2017-08-25T20:02:31.598Z,17.23
2017-08-25T20:05:02.565Z,10.47
2017-08-25T20:07:34.271Z,10.70
2017-08-25T20:16:23.285Z,10.60
2017-08-25T20:18:53.568Z,10.60
2017-08-25T20:21:24.261Z,10.50
2017-08-25T20:23:54.539Z,11.67
2017-08-25T20:26:24.578Z,11.37
2017-08-25T20:28:55.738Z,11.90
2017-08-25T20:31:26.421Z,10.60
2017-08-25T20:33:57.651Z,9.80
2017-08-25T20:36:29.906Z,12.03
2017-08-25T20:39:00.611Z,10.53
2017-08-25T20:41:31.075Z,11.23
2017-08-25T20:44:03.469Z,10.57
2017-08-25T20:46:37.255Z,11.07
2017-08-25T20:49:10.840Z,10.67
2017-08-25T20:51:45.150Z,11.37
2017-08-25T20:54:21.628Z,10.63
2017-08-25T20:56:55.305Z,10.93
2017-08-25T21:02:18.829Z,11.40
2017-08-25T21:04:57.836Z,11.60
2017-08-25T21:07:31.594Z,10.53
2017-08-25T21:10:02.836Z,10.87
2017-08-25T21:12:36.515Z,11.93
2017-08-25T21:15:07.247Z,11.90
2017-08-25T21:17:38.114Z,11.13
2017-08-25T21:20:08.782Z,10.90
2017-08-25T21:22:39.780Z,11.47
2017-08-25T21:25:11.705Z,11.97
2017-08-25T21:27:44.027Z,12.60
2017-08-25T21:30:16.433Z,12.00
2017-08-25T21:32:46.154Z,12.70
2017-08-25T21:35:16.765Z,12.40
2017-08-25T21:37:47.934Z,10.97
2017-08-25T21:40:19.892Z,11.83
2017-08-25T21:42:49.781Z,11.80
2017-08-25T21:45:21.141Z,12.20
2017-08-25T21:47:54.274Z,12.00
2017-08-25T21:50:24.791Z,12.37
2017-08-25T21:52:55.104Z,10.77
2017-08-25T21:55:29.352Z,14.90
2017-08-25T21:58:02.665Z,11.50
2017-08-25T22:00:35.770Z,11.37
2017-08-25T22:03:08.108Z,12.03
2017-08-25T22:05:38.889Z,10.70
2017-08-25T22:08:14.626Z,11.47
2017-08-25T22:10:46.256Z,11.30
2017-08-25T22:13:18.598Z,12.63
2017-08-25T22:15:50.283Z,10.53
2017-08-25T22:18:22.215Z,11.37
2017-08-25T22:20:56.639Z,12.33
2017-08-25T22:23:29.273Z,11.30
2017-08-25T22:28:36.179Z,12.47
2017-08-25T22:31:07.883Z,11.60
2017-08-25T22:33:38.541Z,12.43
2017-08-25T22:36:09.345Z,13.50
2017-08-25T22:38:40.725Z,12.10
2017-08-25T22:41:14.404Z,13.30
2017-08-25T22:43:47.296Z,11.60
2017-08-25T22:46:19.098Z,12.10
2017-08-25T22:48:53.142Z,11.67
2017-08-25T22:51:25.174Z,11.77
2017-08-25T22:53:58.168Z,11.23
2017-08-25T22:56:31.534Z,11.77
2017-08-25T22:59:04.766Z,10.80
2017-08-25T23:01:36.576Z,11.93
2017-08-25T23:04:08.574Z,10.83
2017-08-25T23:06:39.105Z,11.23
2017-08-25T23:09:10.693Z,10.83
2017-08-25T23:11:42.438Z,11.10
2017-08-25T23:14:17.238Z,11.30
2017-08-25T23:16:50.093Z,11.00
2017-08-25T23:19:23.205Z,11.97
2017-08-25T23:21:55.228Z,12.40
2017-08-25T23:24:26.176Z,11.40
2017-08-25T23:26:58.567Z,12.77
2017-08-25T23:29:31.022Z,11.57
2017-08-25T23:32:03.646Z,12.27
2017-08-25T23:34:35.892Z,11.20
2017-08-25T23:37:06.472Z,12.70
2017-08-25T23:39:40.788Z,11.10
2017-08-25T23:42:13.227Z,11.10
2017-08-25T23:44:47.176Z,11.70
2017-08-25T23:47:18.940Z,12.13
2017-08-25T23:49:54.601Z,12.27
2017-08-25T23:52:26.414Z,11.40
2017-08-25T23:54:59.211Z,14.43
2017-08-25T23:57:31.498Z,12.37
